sensor_id;sensor_type;location;lat;lon;timestamp;P1;durP1;ratioP1;P2;durP2;ratioP2
54599;SDS011;40500;51.084;16.958;2023-12-04T00:00:26;32.10;;;15.30;;
54599;SDS011;40500;51.084;16.958;2023-12-04T00:03:14;32.10;;;15.10;;
54599;SDS011;40500;51.084;16.958;2023-12-04T00:05:43;40.80;;;16.20;;
54599;SDS011;40500;51.084;16.958;2023-12-04T00:08:13;36.60;;;15.30;;
54599;SDS011;40500;51.084;16.958;2023-12-04T00:10:41;35.20;;;14.40;;
54599;SDS011;40500;51.084;16.958;2023-12-04T00:13:09;39.40;;;15.60;;
54599;SDS011;40500;51.084;16.958;2023-12-04T00:15:37;31.30;;;15.20;;
54599;SDS011;40500;51.084;16.958;2023-12-04T00:18:05;20.50;;;10.40;;
54599;SDS011;40500;51.084;16.958;2023-12-04T00:20:33;26.70;;;11.30;;
54599;SDS011;40500;51.084;16.958;2023-12-04T00:23:01;23.10;;;11.70;;
54599;SDS011;40500;51.084;16.958;2023-12-04T00:25:30;31.00;;;12.80;;
54599;SDS011;40500;51.084;16.958;2023-12-04T00:27:58;24.80;;;11.50;;
54599;SDS011;40500;51.084;16.958;2023-12-04T00:30:26;19.10;;;9.30;;
54599;SDS011;40500;51.084;16.958;2023-12-04T00:32:54;25.00;;;10.50;;
54599;SDS011;40500;51.084;16.958;2023-12-04T00:35:22;25.70;;;10.60;;
54599;SDS011;40500;51.084;16.958;2023-12-04T00:37:50;30.40;;;12.50;;
54599;SDS011;40500;51.084;16.958;2023-12-04T00:40:18;34.20;;;15.10;;
54599;SDS011;40500;51.084;16.958;2023-12-04T00:42:46;26.70;;;11.60;;
54599;SDS011;40500;51.084;16.958;2023-12-04T00:45:14;30.90;;;13.00;;
54599;SDS011;40500;51.084;16.958;2023-12-04T00:47:42;25.80;;;12.30;;
54599;SDS011;40500;51.084;16.958;2023-12-04T00:50:11;37.00;;;12.80;;
54599;SDS011;40500;51.084;16.958;2023-12-04T00:52:39;26.80;;;10.00;;
54599;SDS011;40500;51.084;16.958;2023-12-04T00:55:08;31.50;;;13.30;;
54599;SDS011;40500;51.084;16.958;2023-12-04T00:57:36;31.20;;;13.90;;
54599;SDS011;40500;51.084;16.958;2023-12-04T01:00:05;25.70;;;13.00;;
54599;SDS011;40500;51.084;16.958;2023-12-04T01:02:33;35.50;;;14.70;;
54599;SDS011;40500;51.084;16.958;2023-12-04T01:05:01;31.10;;;14.10;;
54599;SDS011;40500;51.084;16.958;2023-12-04T01:07:30;34.80;;;14.30;;
54599;SDS011;40500;51.084;16.958;2023-12-04T01:09:57;28.20;;;12.40;;
54599;SDS011;40500;51.084;16.958;2023-12-04T01:12:25;23.50;;;12.60;;
54599;SDS011;40500;51.084;16.958;2023-12-04T01:14:54;24.20;;;10.80;;
54599;SDS011;40500;51.084;16.958;2023-12-04T01:17:22;26.00;;;11.90;;
54599;SDS011;40500;51.084;16.958;2023-12-04T01:19:50;23.70;;;11.90;;
54599;SDS011;40500;51.084;16.958;2023-12-04T01:22:18;28.80;;;11.60;;
54599;SDS011;40500;51.084;16.958;2023-12-04T01:24:46;33.70;;;14.30;;
54599;SDS011;40500;51.084;16.958;2023-12-04T01:27:14;27.00;;;11.10;;
54599;SDS011;40500;51.084;16.958;2023-12-04T01:29:42;26.10;;;11.70;;
54599;SDS011;40500;51.084;16.958;2023-12-04T01:32:10;33.40;;;12.30;;
54599;SDS011;40500;51.084;16.958;2023-12-04T01:34:38;28.90;;;13.00;;
54599;SDS011;40500;51.084;16.958;2023-12-04T01:37:06;24.00;;;10.40;;
54599;SDS011;40500;51.084;16.958;2023-12-04T01:39:34;24.30;;;11.10;;
54599;SDS011;40500;51.084;16.958;2023-12-04T01:42:02;23.00;;;10.00;;
54599;SDS011;40500;51.084;16.958;2023-12-04T01:44:30;21.90;;;10.30;;
54599;SDS011;40500;51.084;16.958;2023-12-04T01:48:25;31.20;;;11.50;;
54599;SDS011;40500;51.084;16.958;2023-12-04T01:50:56;26.50;;;11.20;;
54599;SDS011;40500;51.084;16.958;2023-12-04T01:53:27;31.20;;;12.40;;
54599;SDS011;40500;51.084;16.958;2023-12-04T01:55:58;26.20;;;11.70;;
54599;SDS011;40500;51.084;16.958;2023-12-04T01:58:28;32.50;;;13.60;;
54599;SDS011;40500;51.084;16.958;2023-12-04T02:00:59;32.20;;;12.40;;
54599;SDS011;40500;51.084;16.958;2023-12-04T02:03:30;26.90;;;12.80;;
54599;SDS011;40500;51.084;16.958;2023-12-04T02:06:01;25.40;;;12.00;;
54599;SDS011;40500;51.084;16.958;2023-12-04T02:08:33;29.40;;;11.50;;
54599;SDS011;40500;51.084;16.958;2023-12-04T02:11:04;28.70;;;10.30;;
54599;SDS011;40500;51.084;16.958;2023-12-04T02:13:35;26.50;;;10.60;;
54599;SDS011;40500;51.084;16.958;2023-12-04T02:16:08;24.90;;;12.40;;
54599;SDS011;40500;51.084;16.958;2023-12-04T02:18:39;34.50;;;13.70;;
54599;SDS011;40500;51.084;16.958;2023-12-04T02:21:10;30.60;;;14.00;;
54599;SDS011;40500;51.084;16.958;2023-12-04T02:23:41;28.70;;;12.30;;
54599;SDS011;40500;51.084;16.958;2023-12-04T02:26:12;30.80;;;12.40;;
54599;SDS011;40500;51.084;16.958;2023-12-04T02:28:45;35.00;;;13.20;;
54599;SDS011;40500;51.084;16.958;2023-12-04T02:31:16;34.50;;;14.50;;
54599;SDS011;40500;51.084;16.958;2023-12-04T02:33:48;30.60;;;13.70;;
54599;SDS011;40500;51.084;16.958;2023-12-04T02:36:23;30.10;;;13.10;;
54599;SDS011;40500;51.084;16.958;2023-12-04T02:38:55;29.20;;;11.40;;
54599;SDS011;40500;51.084;16.958;2023-12-04T02:41:26;25.00;;;10.60;;
54599;SDS011;40500;51.084;16.958;2023-12-04T02:43:58;28.30;;;12.50;;
54599;SDS011;40500;51.084;16.958;2023-12-04T02:46:29;34.60;;;15.80;;
54599;SDS011;40500;51.084;16.958;2023-12-04T02:49:00;34.50;;;14.80;;
54599;SDS011;40500;51.084;16.958;2023-12-04T02:51:31;32.40;;;13.40;;
54599;SDS011;40500;51.084;16.958;2023-12-04T02:54:01;34.90;;;13.30;;
54599;SDS011;40500;51.084;16.958;2023-12-04T02:56:33;25.20;;;10.10;;
54599;SDS011;40500;51.084;16.958;2023-12-04T02:59:04;24.30;;;11.80;;
54599;SDS011;40500;51.084;16.958;2023-12-04T03:01:35;36.10;;;13.70;;
54599;SDS011;40500;51.084;16.958;2023-12-04T03:04:05;31.90;;;13.40;;
54599;SDS011;40500;51.084;16.958;2023-12-04T03:06:36;37.00;;;13.40;;
54599;SDS011;40500;51.084;16.958;2023-12-04T03:09:07;28.20;;;12.70;;
54599;SDS011;40500;51.084;16.958;2023-12-04T03:11:40;28.00;;;11.80;;
54599;SDS011;40500;51.084;16.958;2023-12-04T03:14:11;24.60;;;11.20;;
54599;SDS011;40500;51.084;16.958;2023-12-04T03:16:41;20.10;;;9.50;;
54599;SDS011;40500;51.084;16.958;2023-12-04T03:19:12;19.40;;;9.10;;
54599;SDS011;40500;51.084;16.958;2023-12-04T03:21:43;26.00;;;10.80;;
54599;SDS011;40500;51.084;16.958;2023-12-04T03:24:14;36.80;;;12.60;;
54599;SDS011;40500;51.084;16.958;2023-12-04T03:26:44;34.30;;;14.00;;
54599;SDS011;40500;51.084;16.958;2023-12-04T03:29:15;24.00;;;11.40;;
54599;SDS011;40500;51.084;16.958;2023-12-04T03:45:40;20.50;;;9.40;;
54599;SDS011;40500;51.084;16.958;2023-12-04T03:48:08;27.50;;;11.60;;
54599;SDS011;40500;51.084;16.958;2023-12-04T04:00:48;21.80;;;10.20;;
54599;SDS011;40500;51.084;16.958;2023-12-04T04:03:19;25.70;;;10.40;;
54599;SDS011;40500;51.084;16.958;2023-12-04T04:16:18;26.50;;;11.30;;
54599;SDS011;40500;51.084;16.958;2023-12-04T04:18:46;29.10;;;10.70;;
54599;SDS011;40500;51.084;16.958;2023-12-04T04:21:14;25.60;;;12.50;;
54599;SDS011;40500;51.084;16.958;2023-12-04T04:23:42;28.10;;;12.60;;
54599;SDS011;40500;51.084;16.958;2023-12-04T04:26:09;30.40;;;10.70;;
54599;SDS011;40500;51.084;16.958;2023-12-04T04:28:38;21.40;;;10.20;;
54599;SDS011;40500;51.084;16.958;2023-12-04T04:31:06;25.50;;;10.80;;
54599;SDS011;40500;51.084;16.958;2023-12-04T04:33:34;29.30;;;14.40;;
54599;SDS011;40500;51.084;16.958;2023-12-04T04:36:03;28.20;;;12.30;;
54599;SDS011;40500;51.084;16.958;2023-12-04T04:38:31;17.90;;;8.40;;
54599;SDS011;40500;51.084;16.958;2023-12-04T04:40:59;20.60;;;9.30;;
54599;SDS011;40500;51.084;16.958;2023-12-04T04:43:27;23.10;;;11.70;;
54599;SDS011;40500;51.084;16.958;2023-12-04T04:45:55;26.20;;;12.60;;
54599;SDS011;40500;51.084;16.958;2023-12-04T04:48:23;32.00;;;12.00;;
54599;SDS011;40500;51.084;16.958;2023-12-04T04:50:51;32.20;;;13.40;;
54599;SDS011;40500;51.084;16.958;2023-12-04T04:53:19;31.60;;;14.70;;
54599;SDS011;40500;51.084;16.958;2023-12-04T04:55:48;19.70;;;9.40;;
54599;SDS011;40500;51.084;16.958;2023-12-04T04:58:17;24.00;;;11.70;;
54599;SDS011;40500;51.084;16.958;2023-12-04T05:00:45;25.80;;;10.90;;
54599;SDS011;40500;51.084;16.958;2023-12-04T05:03:13;34.80;;;14.60;;
54599;SDS011;40500;51.084;16.958;2023-12-04T05:05:42;43.50;;;16.10;;
54599;SDS011;40500;51.084;16.958;2023-12-04T05:08:10;35.80;;;13.60;;
54599;SDS011;40500;51.084;16.958;2023-12-04T05:10:38;34.20;;;13.70;;
54599;SDS011;40500;51.084;16.958;2023-12-04T05:13:06;32.10;;;13.80;;
54599;SDS011;40500;51.084;16.958;2023-12-04T05:15:35;28.20;;;12.50;;
54599;SDS011;40500;51.084;16.958;2023-12-04T05:18:03;37.30;;;15.50;;
54599;SDS011;40500;51.084;16.958;2023-12-04T05:20:47;23.90;;;11.00;;
54599;SDS011;40500;51.084;16.958;2023-12-04T05:23:18;45.10;;;14.70;;
54599;SDS011;40500;51.084;16.958;2023-12-04T05:25:49;57.20;;;17.50;;
54599;SDS011;40500;51.084;16.958;2023-12-04T05:28:19;35.00;;;13.30;;
54599;SDS011;40500;51.084;16.958;2023-12-04T05:30:50;37.90;;;15.70;;
54599;SDS011;40500;51.084;16.958;2023-12-04T05:33:20;49.50;;;18.10;;
54599;SDS011;40500;51.084;16.958;2023-12-04T05:35:52;42.90;;;15.40;;
54599;SDS011;40500;51.084;16.958;2023-12-04T05:38:23;33.70;;;13.20;;
54599;SDS011;40500;51.084;16.958;2023-12-04T05:40:53;37.70;;;16.20;;
54599;SDS011;40500;51.084;16.958;2023-12-04T05:43:24;28.20;;;13.40;;
54599;SDS011;40500;51.084;16.958;2023-12-04T05:45:55;43.70;;;18.20;;
54599;SDS011;40500;51.084;16.958;2023-12-04T05:48:26;42.80;;;17.50;;
54599;SDS011;40500;51.084;16.958;2023-12-04T05:50:56;36.20;;;16.40;;
54599;SDS011;40500;51.084;16.958;2023-12-04T05:53:27;41.80;;;17.90;;
54599;SDS011;40500;51.084;16.958;2023-12-04T05:55:58;33.10;;;13.90;;
54599;SDS011;40500;51.084;16.958;2023-12-04T05:58:29;33.30;;;15.10;;
54599;SDS011;40500;51.084;16.958;2023-12-04T06:00:59;29.50;;;12.60;;
54599;SDS011;40500;51.084;16.958;2023-12-04T06:03:30;28.30;;;12.60;;
54599;SDS011;40500;51.084;16.958;2023-12-04T06:06:01;34.10;;;13.60;;
54599;SDS011;40500;51.084;16.958;2023-12-04T06:08:33;29.30;;;11.50;;
54599;SDS011;40500;51.084;16.958;2023-12-04T06:11:04;30.70;;;13.20;;
54599;SDS011;40500;51.084;16.958;2023-12-04T06:13:35;36.40;;;14.10;;
54599;SDS011;40500;51.084;16.958;2023-12-04T06:16:07;30.50;;;13.80;;
54599;SDS011;40500;51.084;16.958;2023-12-04T06:18:39;35.90;;;13.90;;
54599;SDS011;40500;51.084;16.958;2023-12-04T06:21:10;35.40;;;15.00;;
54599;SDS011;40500;51.084;16.958;2023-12-04T06:23:41;39.50;;;15.80;;
54599;SDS011;40500;51.084;16.958;2023-12-04T06:26:13;30.40;;;12.30;;
54599;SDS011;40500;51.084;16.958;2023-12-04T06:28:44;25.40;;;12.70;;
54599;SDS011;40500;51.084;16.958;2023-12-04T06:31:15;32.30;;;13.90;;
54599;SDS011;40500;51.084;16.958;2023-12-04T06:33:46;44.50;;;18.00;;
54599;SDS011;40500;51.084;16.958;2023-12-04T06:36:17;30.40;;;14.20;;
54599;SDS011;40500;51.084;16.958;2023-12-04T06:38:49;39.10;;;15.10;;
54599;SDS011;40500;51.084;16.958;2023-12-04T06:41:22;36.00;;;14.70;;
54599;SDS011;40500;51.084;16.958;2023-12-04T06:43:54;27.60;;;11.80;;
54599;SDS011;40500;51.084;16.958;2023-12-04T06:46:25;25.80;;;11.30;;
54599;SDS011;40500;51.084;16.958;2023-12-04T06:48:58;29.60;;;12.70;;
54599;SDS011;40500;51.084;16.958;2023-12-04T06:51:29;41.20;;;16.80;;
54599;SDS011;40500;51.084;16.958;2023-12-04T06:54:00;35.20;;;14.50;;
54599;SDS011;40500;51.084;16.958;2023-12-04T06:56:31;27.70;;;12.40;;
54599;SDS011;40500;51.084;16.958;2023-12-04T06:59:02;32.10;;;14.50;;
54599;SDS011;40500;51.084;16.958;2023-12-04T07:01:33;36.00;;;16.50;;
54599;SDS011;40500;51.084;16.958;2023-12-04T07:04:04;32.50;;;14.40;;
54599;SDS011;40500;51.084;16.958;2023-12-04T07:06:39;25.20;;;12.20;;
54599;SDS011;40500;51.084;16.958;2023-12-04T07:09:10;29.20;;;13.30;;
54599;SDS011;40500;51.084;16.958;2023-12-04T07:11:40;27.50;;;12.70;;
54599;SDS011;40500;51.084;16.958;2023-12-04T07:14:11;34.10;;;15.90;;
54599;SDS011;40500;51.084;16.958;2023-12-04T07:16:42;30.60;;;13.50;;
54599;SDS011;40500;51.084;16.958;2023-12-04T07:19:13;31.60;;;14.70;;
54599;SDS011;40500;51.084;16.958;2023-12-04T07:21:44;29.30;;;13.50;;
54599;SDS011;40500;51.084;16.958;2023-12-04T07:24:14;39.10;;;17.30;;
54599;SDS011;40500;51.084;16.958;2023-12-04T07:26:45;26.80;;;12.50;;
54599;SDS011;40500;51.084;16.958;2023-12-04T07:29:16;33.20;;;13.50;;
54599;SDS011;40500;51.084;16.958;2023-12-04T07:31:47;45.50;;;19.70;;
54599;SDS011;40500;51.084;16.958;2023-12-04T07:34:17;42.50;;;19.00;;
54599;SDS011;40500;51.084;16.958;2023-12-04T07:36:48;43.20;;;19.80;;
54599;SDS011;40500;51.084;16.958;2023-12-04T07:39:20;40.20;;;17.50;;
54599;SDS011;40500;51.084;16.958;2023-12-04T07:41:50;48.40;;;19.60;;
54599;SDS011;40500;51.084;16.958;2023-12-04T07:44:22;28.80;;;13.00;;
54599;SDS011;40500;51.084;16.958;2023-12-04T07:46:52;32.60;;;15.40;;
54599;SDS011;40500;51.084;16.958;2023-12-04T07:49:23;38.20;;;18.20;;
54599;SDS011;40500;51.084;16.958;2023-12-04T07:51:54;45.80;;;18.50;;
54599;SDS011;40500;51.084;16.958;2023-12-04T07:54:25;47.90;;;20.40;;
54599;SDS011;40500;51.084;16.958;2023-12-04T07:56:57;33.70;;;13.80;;
54599;SDS011;40500;51.084;16.958;2023-12-04T07:59:27;44.20;;;18.40;;
54599;SDS011;40500;51.084;16.958;2023-12-04T08:01:58;40.50;;;19.90;;
54599;SDS011;40500;51.084;16.958;2023-12-04T08:04:29;34.10;;;15.70;;
54599;SDS011;40500;51.084;16.958;2023-12-04T08:07:00;35.00;;;14.70;;
54599;SDS011;40500;51.084;16.958;2023-12-04T08:09:30;36.60;;;16.30;;
54599;SDS011;40500;51.084;16.958;2023-12-04T08:12:01;40.30;;;17.80;;
54599;SDS011;40500;51.084;16.958;2023-12-04T08:14:32;46.10;;;20.50;;
54599;SDS011;40500;51.084;16.958;2023-12-04T08:17:02;37.30;;;15.10;;
54599;SDS011;40500;51.084;16.958;2023-12-04T08:19:33;56.50;;;21.30;;
54599;SDS011;40500;51.084;16.958;2023-12-04T08:22:04;30.70;;;14.80;;
54599;SDS011;40500;51.084;16.958;2023-12-04T08:24:35;38.30;;;16.10;;
54599;SDS011;40500;51.084;16.958;2023-12-04T08:27:06;41.60;;;14.50;;
54599;SDS011;40500;51.084;16.958;2023-12-04T08:29:38;46.70;;;20.00;;
54599;SDS011;40500;51.084;16.958;2023-12-04T08:32:09;35.80;;;16.30;;
54599;SDS011;40500;51.084;16.958;2023-12-04T08:34:40;30.90;;;14.80;;
54599;SDS011;40500;51.084;16.958;2023-12-04T08:37:11;39.40;;;16.50;;
54599;SDS011;40500;51.084;16.958;2023-12-04T08:39:42;43.40;;;17.90;;
54599;SDS011;40500;51.084;16.958;2023-12-04T08:42:13;31.40;;;14.40;;
54599;SDS011;40500;51.084;16.958;2023-12-04T08:44:52;30.30;;;13.80;;
54599;SDS011;40500;51.084;16.958;2023-12-04T08:47:22;44.60;;;18.80;;
54599;SDS011;40500;51.084;16.958;2023-12-04T08:49:53;30.30;;;15.00;;
54599;SDS011;40500;51.084;16.958;2023-12-04T08:52:24;34.10;;;13.70;;
54599;SDS011;40500;51.084;16.958;2023-12-04T08:54:55;30.40;;;14.30;;
54599;SDS011;40500;51.084;16.958;2023-12-04T08:57:25;30.80;;;15.60;;
54599;SDS011;40500;51.084;16.958;2023-12-04T08:59:56;40.80;;;18.10;;
54599;SDS011;40500;51.084;16.958;2023-12-04T09:02:27;33.10;;;15.40;;
54599;SDS011;40500;51.084;16.958;2023-12-04T09:04:58;40.30;;;17.60;;
54599;SDS011;40500;51.084;16.958;2023-12-04T09:07:29;34.90;;;16.40;;
54599;SDS011;40500;51.084;16.958;2023-12-04T09:10:03;31.50;;;15.20;;
54599;SDS011;40500;51.084;16.958;2023-12-04T09:12:42;30.80;;;14.80;;
54599;SDS011;40500;51.084;16.958;2023-12-04T09:15:13;31.70;;;13.70;;
54599;SDS011;40500;51.084;16.958;2023-12-04T09:17:43;36.00;;;16.00;;
54599;SDS011;40500;51.084;16.958;2023-12-04T09:20:14;30.50;;;14.30;;
54599;SDS011;40500;51.084;16.958;2023-12-04T09:22:45;27.20;;;13.80;;
54599;SDS011;40500;51.084;16.958;2023-12-04T09:25:21;29.20;;;14.30;;
54599;SDS011;40500;51.084;16.958;2023-12-04T09:27:51;39.30;;;16.20;;
54599;SDS011;40500;51.084;16.958;2023-12-04T09:30:22;30.40;;;14.50;;
54599;SDS011;40500;51.084;16.958;2023-12-04T09:32:54;32.50;;;15.20;;
54599;SDS011;40500;51.084;16.958;2023-12-04T09:35:25;28.20;;;13.30;;
54599;SDS011;40500;51.084;16.958;2023-12-04T09:37:55;25.90;;;13.50;;
54599;SDS011;40500;51.084;16.958;2023-12-04T09:40:26;30.60;;;15.00;;
54599;SDS011;40500;51.084;16.958;2023-12-04T09:42:57;32.60;;;14.60;;
54599;SDS011;40500;51.084;16.958;2023-12-04T09:45:27;27.90;;;15.10;;
54599;SDS011;40500;51.084;16.958;2023-12-04T09:47:59;26.10;;;12.80;;
54599;SDS011;40500;51.084;16.958;2023-12-04T09:50:31;22.70;;;10.50;;
54599;SDS011;40500;51.084;16.958;2023-12-04T09:53:02;30.40;;;15.60;;
54599;SDS011;40500;51.084;16.958;2023-12-04T09:55:32;33.50;;;15.90;;
54599;SDS011;40500;51.084;16.958;2023-12-04T09:58:03;34.70;;;17.10;;
54599;SDS011;40500;51.084;16.958;2023-12-04T10:00:35;26.40;;;13.10;;
54599;SDS011;40500;51.084;16.958;2023-12-04T10:03:05;27.90;;;15.10;;
54599;SDS011;40500;51.084;16.958;2023-12-04T10:05:36;25.00;;;13.10;;
54599;SDS011;40500;51.084;16.958;2023-12-04T10:08:07;34.70;;;14.50;;
54599;SDS011;40500;51.084;16.958;2023-12-04T10:10:38;28.50;;;14.70;;
54599;SDS011;40500;51.084;16.958;2023-12-04T10:13:08;30.20;;;14.70;;
54599;SDS011;40500;51.084;16.958;2023-12-04T10:15:47;26.90;;;13.50;;
54599;SDS011;40500;51.084;16.958;2023-12-04T10:18:27;25.70;;;13.20;;
54599;SDS011;40500;51.084;16.958;2023-12-04T10:20:59;32.90;;;15.70;;
54599;SDS011;40500;51.084;16.958;2023-12-04T10:23:37;35.80;;;15.00;;
54599;SDS011;40500;51.084;16.958;2023-12-04T10:26:09;33.80;;;17.10;;
54599;SDS011;40500;51.084;16.958;2023-12-04T10:28:54;25.10;;;12.70;;
54599;SDS011;40500;51.084;16.958;2023-12-04T10:31:29;31.20;;;13.70;;
54599;SDS011;40500;51.084;16.958;2023-12-04T10:34:02;34.30;;;16.10;;
54599;SDS011;40500;51.084;16.958;2023-12-04T10:36:34;27.30;;;13.30;;
54599;SDS011;40500;51.084;16.958;2023-12-04T10:39:05;25.90;;;12.00;;
54599;SDS011;40500;51.084;16.958;2023-12-04T10:41:35;29.60;;;15.70;;
54599;SDS011;40500;51.084;16.958;2023-12-04T10:44:06;30.10;;;15.70;;
54599;SDS011;40500;51.084;16.958;2023-12-04T10:46:39;35.20;;;16.10;;
54599;SDS011;40500;51.084;16.958;2023-12-04T10:49:11;30.90;;;15.60;;
54599;SDS011;40500;51.084;16.958;2023-12-04T10:51:43;33.40;;;16.80;;
54599;SDS011;40500;51.084;16.958;2023-12-04T10:54:15;35.80;;;17.30;;
54599;SDS011;40500;51.084;16.958;2023-12-04T10:56:46;26.20;;;12.80;;
54599;SDS011;40500;51.084;16.958;2023-12-04T10:59:18;27.70;;;14.60;;
54599;SDS011;40500;51.084;16.958;2023-12-04T11:01:52;40.80;;;18.40;;
54599;SDS011;40500;51.084;16.958;2023-12-04T11:04:25;30.80;;;16.10;;
54599;SDS011;40500;51.084;16.958;2023-12-04T11:06:56;33.60;;;16.40;;
54599;SDS011;40500;51.084;16.958;2023-12-04T11:09:31;36.50;;;16.10;;
54599;SDS011;40500;51.084;16.958;2023-12-04T11:12:06;33.10;;;15.80;;
54599;SDS011;40500;51.084;16.958;2023-12-04T11:14:42;32.00;;;16.30;;
54599;SDS011;40500;51.084;16.958;2023-12-04T11:17:13;32.90;;;16.80;;
54599;SDS011;40500;51.084;16.958;2023-12-04T11:19:46;36.70;;;18.40;;
54599;SDS011;40500;51.084;16.958;2023-12-04T11:22:18;31.00;;;13.80;;
54599;SDS011;40500;51.084;16.958;2023-12-04T11:24:49;35.40;;;16.80;;
54599;SDS011;40500;51.084;16.958;2023-12-04T11:27:21;32.70;;;14.70;;
54599;SDS011;40500;51.084;16.958;2023-12-04T11:29:53;31.90;;;15.10;;
54599;SDS011;40500;51.084;16.958;2023-12-04T11:32:24;36.10;;;17.60;;
54599;SDS011;40500;51.084;16.958;2023-12-04T11:34:58;33.00;;;15.60;;
54599;SDS011;40500;51.084;16.958;2023-12-04T11:37:31;27.20;;;13.20;;
54599;SDS011;40500;51.084;16.958;2023-12-04T11:40:04;32.80;;;16.40;;
54599;SDS011;40500;51.084;16.958;2023-12-04T11:42:36;33.40;;;16.50;;
54599;SDS011;40500;51.084;16.958;2023-12-04T11:45:10;37.60;;;18.20;;
54599;SDS011;40500;51.084;16.958;2023-12-04T11:47:49;34.70;;;16.60;;
54599;SDS011;40500;51.084;16.958;2023-12-04T11:50:21;35.40;;;16.70;;
54599;SDS011;40500;51.084;16.958;2023-12-04T11:52:54;32.40;;;16.70;;
54599;SDS011;40500;51.084;16.958;2023-12-04T11:55:25;35.00;;;16.30;;
54599;SDS011;40500;51.084;16.958;2023-12-04T11:57:57;30.80;;;14.50;;
54599;SDS011;40500;51.084;16.958;2023-12-04T12:00:28;38.10;;;18.20;;
54599;SDS011;40500;51.084;16.958;2023-12-04T12:03:02;37.10;;;18.00;;
54599;SDS011;40500;51.084;16.958;2023-12-04T12:05:51;36.90;;;18.60;;
54599;SDS011;40500;51.084;16.958;2023-12-04T12:08:23;32.60;;;17.20;;
54599;SDS011;40500;51.084;16.958;2023-12-04T12:10:54;33.70;;;18.00;;
54599;SDS011;40500;51.084;16.958;2023-12-04T12:13:25;37.30;;;17.40;;
54599;SDS011;40500;51.084;16.958;2023-12-04T12:15:56;30.00;;;14.20;;
54599;SDS011;40500;51.084;16.958;2023-12-04T12:18:27;39.00;;;19.20;;
54599;SDS011;40500;51.084;16.958;2023-12-04T12:20:58;52.90;;;22.10;;
54599;SDS011;40500;51.084;16.958;2023-12-04T12:23:29;45.20;;;21.50;;
54599;SDS011;40500;51.084;16.958;2023-12-04T12:26:01;36.40;;;18.30;;
54599;SDS011;40500;51.084;16.958;2023-12-04T12:28:32;42.90;;;21.00;;
54599;SDS011;40500;51.084;16.958;2023-12-04T12:31:05;42.90;;;21.00;;
54599;SDS011;40500;51.084;16.958;2023-12-04T12:33:35;48.50;;;23.20;;
54599;SDS011;40500;51.084;16.958;2023-12-04T12:36:07;50.10;;;23.20;;
54599;SDS011;40500;51.084;16.958;2023-12-04T12:38:39;49.90;;;22.70;;
54599;SDS011;40500;51.084;16.958;2023-12-04T12:41:11;45.30;;;22.10;;
54599;SDS011;40500;51.084;16.958;2023-12-04T12:43:41;41.20;;;19.70;;
54599;SDS011;40500;51.084;16.958;2023-12-04T12:46:13;55.60;;;25.20;;
54599;SDS011;40500;51.084;16.958;2023-12-04T12:48:44;48.60;;;23.40;;
54599;SDS011;40500;51.084;16.958;2023-12-04T12:51:15;45.50;;;23.10;;
54599;SDS011;40500;51.084;16.958;2023-12-04T12:53:45;48.90;;;24.20;;
54599;SDS011;40500;51.084;16.958;2023-12-04T12:56:20;49.80;;;21.70;;
54599;SDS011;40500;51.084;16.958;2023-12-04T12:58:51;44.30;;;22.30;;
54599;SDS011;40500;51.084;16.958;2023-12-04T13:01:24;53.50;;;24.90;;
54599;SDS011;40500;51.084;16.958;2023-12-04T13:03:57;53.20;;;23.90;;
54599;SDS011;40500;51.084;16.958;2023-12-04T13:06:29;64.90;;;25.70;;
54599;SDS011;40500;51.084;16.958;2023-12-04T13:09:01;55.90;;;24.30;;
54599;SDS011;40500;51.084;16.958;2023-12-04T13:11:35;54.80;;;25.40;;
54599;SDS011;40500;51.084;16.958;2023-12-04T13:14:07;54.00;;;24.30;;
54599;SDS011;40500;51.084;16.958;2023-12-04T13:16:37;50.00;;;23.10;;
54599;SDS011;40500;51.084;16.958;2023-12-04T13:19:08;62.10;;;25.40;;
54599;SDS011;40500;51.084;16.958;2023-12-04T13:21:39;45.10;;;20.90;;
54599;SDS011;40500;51.084;16.958;2023-12-04T13:24:10;49.00;;;21.80;;
54599;SDS011;40500;51.084;16.958;2023-12-04T13:26:41;59.90;;;26.80;;
54599;SDS011;40500;51.084;16.958;2023-12-04T13:29:12;45.80;;;22.50;;
54599;SDS011;40500;51.084;16.958;2023-12-04T13:31:44;62.00;;;27.70;;
54599;SDS011;40500;51.084;16.958;2023-12-04T13:34:20;62.60;;;27.90;;
54599;SDS011;40500;51.084;16.958;2023-12-04T13:36:52;50.70;;;24.80;;
54599;SDS011;40500;51.084;16.958;2023-12-04T13:39:23;49.80;;;22.30;;
54599;SDS011;40500;51.084;16.958;2023-12-04T13:42:08;53.00;;;25.80;;
54599;SDS011;40500;51.084;16.958;2023-12-04T13:45:01;75.50;;;29.70;;
54599;SDS011;40500;51.084;16.958;2023-12-04T13:47:33;51.60;;;24.10;;
54599;SDS011;40500;51.084;16.958;2023-12-04T13:50:08;53.30;;;23.70;;
54599;SDS011;40500;51.084;16.958;2023-12-04T13:52:39;51.60;;;24.80;;
54599;SDS011;40500;51.084;16.958;2023-12-04T13:55:14;55.70;;;24.60;;
54599;SDS011;40500;51.084;16.958;2023-12-04T13:57:50;54.30;;;26.80;;
54599;SDS011;40500;51.084;16.958;2023-12-04T14:00:40;48.60;;;23.90;;
54599;SDS011;40500;51.084;16.958;2023-12-04T14:03:13;55.90;;;25.90;;
54599;SDS011;40500;51.084;16.958;2023-12-04T14:05:44;47.30;;;21.10;;
54599;SDS011;40500;51.084;16.958;2023-12-04T14:08:15;55.10;;;22.50;;
54599;SDS011;40500;51.084;16.958;2023-12-04T14:10:46;47.10;;;23.40;;
54599;SDS011;40500;51.084;16.958;2023-12-04T14:13:17;54.30;;;23.80;;
54599;SDS011;40500;51.084;16.958;2023-12-04T14:15:48;51.60;;;23.40;;
54599;SDS011;40500;51.084;16.958;2023-12-04T14:18:18;50.30;;;22.50;;
54599;SDS011;40500;51.084;16.958;2023-12-04T14:20:49;41.50;;;19.10;;
54599;SDS011;40500;51.084;16.958;2023-12-04T14:23:20;48.50;;;22.50;;
54599;SDS011;40500;51.084;16.958;2023-12-04T14:25:51;57.80;;;26.50;;
54599;SDS011;40500;51.084;16.958;2023-12-04T14:28:21;65.30;;;25.40;;
54599;SDS011;40500;51.084;16.958;2023-12-04T14:31:01;53.40;;;24.10;;
54599;SDS011;40500;51.084;16.958;2023-12-04T14:33:31;45.20;;;21.80;;
54599;SDS011;40500;51.084;16.958;2023-12-04T14:36:03;49.70;;;22.40;;
54599;SDS011;40500;51.084;16.958;2023-12-04T14:38:33;46.40;;;23.10;;
54599;SDS011;40500;51.084;16.958;2023-12-04T14:41:05;45.80;;;22.00;;
54599;SDS011;40500;51.084;16.958;2023-12-04T14:43:39;50.20;;;22.40;;
54599;SDS011;40500;51.084;16.958;2023-12-04T14:46:12;45.10;;;21.20;;
54599;SDS011;40500;51.084;16.958;2023-12-04T14:48:43;47.60;;;22.30;;
54599;SDS011;40500;51.084;16.958;2023-12-04T14:51:14;44.70;;;21.10;;
54599;SDS011;40500;51.084;16.958;2023-12-04T14:53:45;53.80;;;22.70;;
54599;SDS011;40500;51.084;16.958;2023-12-04T14:56:20;51.70;;;22.60;;
54599;SDS011;40500;51.084;16.958;2023-12-04T14:59:17;52.70;;;21.80;;
54599;SDS011;40500;51.084;16.958;2023-12-04T15:02:15;45.40;;;21.40;;
54599;SDS011;40500;51.084;16.958;2023-12-04T15:05:18;35.30;;;14.90;;
54599;SDS011;40500;51.084;16.958;2023-12-04T15:08:05;60.00;;;26.60;;